sensor_id;sensor_type;location;lat;lon;timestamp;temperature;humidity
16160;DHT22;8185;57.818;15.224;2022-12-07T00:01:49;-1.50;99.90
16160;DHT22;8185;57.818;15.224;2022-12-07T00:04:17;-1.50;99.90
16160;DHT22;8185;57.818;15.224;2022-12-07T00:06:46;-1.40;99.90
16160;DHT22;8185;57.818;15.224;2022-12-07T00:09:15;-1.40;99.90
16160;DHT22;8185;57.818;15.224;2022-12-07T00:11:47;-1.40;99.90
16160;DHT22;8185;57.818;15.224;2022-12-07T00:14:16;-1.40;99.90
16160;DHT22;8185;57.818;15.224;2022-12-07T00:16:44;-1.40;99.90
16160;DHT22;8185;57.818;15.224;2022-12-07T00:19:12;-1.40;99.90
16160;DHT22;8185;57.818;15.224;2022-12-07T00:21:39;-1.40;99.90
16160;DHT22;8185;57.818;15.224;2022-12-07T00:24:07;-1.40;99.90
16160;DHT22;8185;57.818;15.224;2022-12-07T00:26:36;-1.40;99.90
16160;DHT22;8185;57.818;15.224;2022-12-07T00:29:07;-1.40;99.90
16160;DHT22;8185;57.818;15.224;2022-12-07T00:31:36;-1.40;99.90
16160;DHT22;8185;57.818;15.224;2022-12-07T00:34:05;-1.40;99.90
16160;DHT22;8185;57.818;15.224;2022-12-07T00:36:32;-1.50;99.90
16160;DHT22;8185;57.818;15.224;2022-12-07T00:39:00;-1.50;99.90
16160;DHT22;8185;57.818;15.224;2022-12-07T00:41:29;-1.60;99.90
16160;DHT22;8185;57.818;15.224;2022-12-07T00:43:56;-1.60;99.90
16160;DHT22;8185;57.818;15.224;2022-12-07T00:46:25;-1.60;99.90
16160;DHT22;8185;57.818;15.224;2022-12-07T00:48:53;-1.60;99.90
16160;DHT22;8185;57.818;15.224;2022-12-07T00:51:22;-1.50;99.90
16160;DHT22;8185;57.818;15.224;2022-12-07T00:53:50;-1.60;99.90
16160;DHT22;8185;57.818;15.224;2022-12-07T00:56:19;-1.60;99.90
16160;DHT22;8185;57.818;15.224;2022-12-07T00:58:51;-1.60;99.90
16160;DHT22;8185;57.818;15.224;2022-12-07T01:01:18;-1.50;99.90
16160;DHT22;8185;57.818;15.224;2022-12-07T01:03:47;-1.50;99.90
16160;DHT22;8185;57.818;15.224;2022-12-07T01:06:15;-1.50;99.90
16160;DHT22;8185;57.818;15.224;2022-12-07T01:08:43;-1.50;99.90
16160;DHT22;8185;57.818;15.224;2022-12-07T01:11:15;-1.40;99.90
16160;DHT22;8185;57.818;15.224;2022-12-07T01:13:43;-1.40;99.90
16160;DHT22;8185;57.818;15.224;2022-12-07T01:16:12;-1.40;99.90
16160;DHT22;8185;57.818;15.224;2022-12-07T01:18:40;-1.40;99.90
16160;DHT22;8185;57.818;15.224;2022-12-07T01:21:10;-1.40;99.90
16160;DHT22;8185;57.818;15.224;2022-12-07T01:23:39;-1.30;99.90
16160;DHT22;8185;57.818;15.224;2022-12-07T01:26:09;-1.30;99.90
16160;DHT22;8185;57.818;15.224;2022-12-07T01:28:38;-1.30;99.90
16160;DHT22;8185;57.818;15.224;2022-12-07T01:31:07;-1.30;99.90
16160;DHT22;8185;57.818;15.224;2022-12-07T01:33:36;-1.30;99.90
16160;DHT22;8185;57.818;15.224;2022-12-07T01:36:04;-1.30;99.90
16160;DHT22;8185;57.818;15.224;2022-12-07T01:38:33;-1.30;99.90
16160;DHT22;8185;57.818;15.224;2022-12-07T01:41:02;-1.20;99.90
16160;DHT22;8185;57.818;15.224;2022-12-07T01:43:31;-1.30;99.90
16160;DHT22;8185;57.818;15.224;2022-12-07T01:46:01;-1.20;99.90
16160;DHT22;8185;57.818;15.224;2022-12-07T01:48:32;-1.30;99.90
16160;DHT22;8185;57.818;15.224;2022-12-07T01:51:04;-1.30;99.90
16160;DHT22;8185;57.818;15.224;2022-12-07T01:53:36;-1.20;99.90
16160;DHT22;8185;57.818;15.224;2022-12-07T01:56:06;-1.30;99.90
16160;DHT22;8185;57.818;15.224;2022-12-07T01:58:36;-1.30;99.90
16160;DHT22;8185;57.818;15.224;2022-12-07T02:01:04;-1.20;99.90
16160;DHT22;8185;57.818;15.224;2022-12-07T02:03:36;-1.20;99.90
16160;DHT22;8185;57.818;15.224;2022-12-07T02:06:05;-1.20;99.90
16160;DHT22;8185;57.818;15.224;2022-12-07T02:08:34;-1.20;99.90
16160;DHT22;8185;57.818;15.224;2022-12-07T02:11:03;-1.20;99.90
16160;DHT22;8185;57.818;15.224;2022-12-07T02:13:32;-1.20;99.90
16160;DHT22;8185;57.818;15.224;2022-12-07T02:16:12;-1.20;99.90
16160;DHT22;8185;57.818;15.224;2022-12-07T02:18:52;-1.20;99.90
16160;DHT22;8185;57.818;15.224;2022-12-07T02:21:29;-1.20;99.90
16160;DHT22;8185;57.818;15.224;2022-12-07T02:24:40;-1.20;99.90
16160;DHT22;8185;57.818;15.224;2022-12-07T02:27:36;-1.30;99.90
16160;DHT22;8185;57.818;15.224;2022-12-07T02:30:06;-1.20;99.90
16160;DHT22;8185;57.818;15.224;2022-12-07T02:32:42;-1.20;99.90
16160;DHT22;8185;57.818;15.224;2022-12-07T02:35:14;-1.20;99.90
16160;DHT22;8185;57.818;15.224;2022-12-07T02:37:48;-1.20;99.90
16160;DHT22;8185;57.818;15.224;2022-12-07T02:40:21;-1.20;99.90
16160;DHT22;8185;57.818;15.224;2022-12-07T02:42:54;-1.30;99.90
16160;DHT22;8185;57.818;15.224;2022-12-07T02:45:25;-1.30;99.90
16160;DHT22;8185;57.818;15.224;2022-12-07T02:47:57;-1.30;99.90
16160;DHT22;8185;57.818;15.224;2022-12-07T02:50:26;-1.40;99.90
16160;DHT22;8185;57.818;15.224;2022-12-07T02:52:54;-1.40;99.90
16160;DHT22;8185;57.818;15.224;2022-12-07T02:55:26;-1.40;99.90
16160;DHT22;8185;57.818;15.224;2022-12-07T02:58:10;-1.40;99.90
16160;DHT22;8185;57.818;15.224;2022-12-07T03:00:52;-1.40;99.90
16160;DHT22;8185;57.818;15.224;2022-12-07T03:03:23;-1.40;99.90
16160;DHT22;8185;57.818;15.224;2022-12-07T03:06:02;-1.40;99.90
16160;DHT22;8185;57.818;15.224;2022-12-07T03:08:41;-1.40;99.90
16160;DHT22;8185;57.818;15.224;2022-12-07T03:11:14;-1.40;99.90
16160;DHT22;8185;57.818;15.224;2022-12-07T03:13:48;-1.50;99.90
16160;DHT22;8185;57.818;15.224;2022-12-07T03:16:20;-1.60;99.90
16160;DHT22;8185;57.818;15.224;2022-12-07T03:18:52;-1.70;99.90
16160;DHT22;8185;57.818;15.224;2022-12-07T03:21:24;-1.80;99.90
16160;DHT22;8185;57.818;15.224;2022-12-07T03:23:55;-1.90;99.90
16160;DHT22;8185;57.818;15.224;2022-12-07T03:26:27;-1.90;99.90
16160;DHT22;8185;57.818;15.224;2022-12-07T03:29:01;-2.00;99.90
16160;DHT22;8185;57.818;15.224;2022-12-07T03:31:33;-2.00;99.90
16160;DHT22;8185;57.818;15.224;2022-12-07T03:34:05;-2.10;99.90
16160;DHT22;8185;57.818;15.224;2022-12-07T03:36:37;-2.20;99.90
16160;DHT22;8185;57.818;15.224;2022-12-07T03:39:13;-2.30;99.90
16160;DHT22;8185;57.818;15.224;2022-12-07T03:41:43;-2.30;99.90
16160;DHT22;8185;57.818;15.224;2022-12-07T03:44:12;-2.30;99.90
16160;DHT22;8185;57.818;15.224;2022-12-07T03:46:44;-2.40;99.90
16160;DHT22;8185;57.818;15.224;2022-12-07T03:49:18;-2.50;99.90
16160;DHT22;8185;57.818;15.224;2022-12-07T03:51:56;-2.60;99.90
16160;DHT22;8185;57.818;15.224;2022-12-07T03:54:28;-2.60;99.90
16160;DHT22;8185;57.818;15.224;2022-12-07T03:56:57;-2.50;99.90
16160;DHT22;8185;57.818;15.224;2022-12-07T03:59:26;-2.60;99.90
16160;DHT22;8185;57.818;15.224;2022-12-07T04:02:01;-2.60;99.90
16160;DHT22;8185;57.818;15.224;2022-12-07T04:04:29;-2.50;99.90
16160;DHT22;8185;57.818;15.224;2022-12-07T04:06:57;-2.40;99.90
16160;DHT22;8185;57.818;15.224;2022-12-07T04:09:24;-2.40;99.90
16160;DHT22;8185;57.818;15.224;2022-12-07T04:11:51;-2.40;99.90
16160;DHT22;8185;57.818;15.224;2022-12-07T04:14:19;-2.30;99.90
16160;DHT22;8185;57.818;15.224;2022-12-07T04:16:47;-2.30;99.90
16160;DHT22;8185;57.818;15.224;2022-12-07T04:19:17;-2.30;99.90
16160;DHT22;8185;57.818;15.224;2022-12-07T04:21:45;-2.20;99.90
16160;DHT22;8185;57.818;15.224;2022-12-07T04:24:13;-2.20;99.90
16160;DHT22;8185;57.818;15.224;2022-12-07T04:26:41;-2.10;99.90
16160;DHT22;8185;57.818;15.224;2022-12-07T04:29:08;-2.10;99.90
16160;DHT22;8185;57.818;15.224;2022-12-07T04:31:36;-2.00;99.90
16160;DHT22;8185;57.818;15.224;2022-12-07T04:34:04;-2.00;99.90
16160;DHT22;8185;57.818;15.224;2022-12-07T04:36:33;-2.10;99.90
16160;DHT22;8185;57.818;15.224;2022-12-07T04:39:01;-2.10;99.90
16160;DHT22;8185;57.818;15.224;2022-12-07T04:41:29;-2.10;99.90
16160;DHT22;8185;57.818;15.224;2022-12-07T04:43:56;-2.20;99.90
16160;DHT22;8185;57.818;15.224;2022-12-07T04:46:25;-2.30;99.90
16160;DHT22;8185;57.818;15.224;2022-12-07T04:48:53;-2.50;99.90
16160;DHT22;8185;57.818;15.224;2022-12-07T04:51:22;-2.60;99.90
16160;DHT22;8185;57.818;15.224;2022-12-07T04:53:52;-2.80;99.90
16160;DHT22;8185;57.818;15.224;2022-12-07T04:56:19;-3.00;99.90
16160;DHT22;8185;57.818;15.224;2022-12-07T04:58:47;-3.10;99.90
16160;DHT22;8185;57.818;15.224;2022-12-07T05:01:16;-3.30;99.90
16160;DHT22;8185;57.818;15.224;2022-12-07T05:03:43;-3.40;99.90
16160;DHT22;8185;57.818;15.224;2022-12-07T05:06:11;-3.50;99.90
16160;DHT22;8185;57.818;15.224;2022-12-07T05:08:39;-3.60;99.90
16160;DHT22;8185;57.818;15.224;2022-12-07T05:11:10;-3.60;99.90
16160;DHT22;8185;57.818;15.224;2022-12-07T05:14:00;-3.70;99.90
16160;DHT22;8185;57.818;15.224;2022-12-07T05:16:27;-3.60;99.90
16160;DHT22;8185;57.818;15.224;2022-12-07T05:18:54;-3.60;99.90
16160;DHT22;8185;57.818;15.224;2022-12-07T05:21:22;-3.60;99.90
16160;DHT22;8185;57.818;15.224;2022-12-07T05:23:49;-3.70;99.90
16160;DHT22;8185;57.818;15.224;2022-12-07T05:26:18;-3.70;99.90
16160;DHT22;8185;57.818;15.224;2022-12-07T05:28:49;-3.70;99.90
16160;DHT22;8185;57.818;15.224;2022-12-07T05:31:16;-3.70;99.90
16160;DHT22;8185;57.818;15.224;2022-12-07T05:33:43;-3.60;99.90
16160;DHT22;8185;57.818;15.224;2022-12-07T05:36:11;-3.60;99.90
16160;DHT22;8185;57.818;15.224;2022-12-07T05:38:38;-3.70;99.90
16160;DHT22;8185;57.818;15.224;2022-12-07T05:41:06;-3.80;99.90
16160;DHT22;8185;57.818;15.224;2022-12-07T05:43:55;-3.70;99.90
16160;DHT22;8185;57.818;15.224;2022-12-07T05:46:23;-3.70;99.90
16160;DHT22;8185;57.818;15.224;2022-12-07T05:48:50;-3.80;99.90
16160;DHT22;8185;57.818;15.224;2022-12-07T05:51:17;-3.80;99.90
16160;DHT22;8185;57.818;15.224;2022-12-07T05:53:44;-3.80;99.90
16160;DHT22;8185;57.818;15.224;2022-12-07T05:56:12;-3.80;99.90
16160;DHT22;8185;57.818;15.224;2022-12-07T05:58:39;-3.80;99.90
16160;DHT22;8185;57.818;15.224;2022-12-07T06:01:25;-3.80;99.90
16160;DHT22;8185;57.818;15.224;2022-12-07T06:03:52;-3.90;99.90
16160;DHT22;8185;57.818;15.224;2022-12-07T06:06:20;-3.90;99.90
16160;DHT22;8185;57.818;15.224;2022-12-07T06:08:48;-3.80;99.90
16160;DHT22;8185;57.818;15.224;2022-12-07T06:11:15;-3.60;99.90
16160;DHT22;8185;57.818;15.224;2022-12-07T06:13:59;-3.70;99.90
16160;DHT22;8185;57.818;15.224;2022-12-07T06:16:28;-3.70;99.90
16160;DHT22;8185;57.818;15.224;2022-12-07T06:18:56;-3.70;99.90
16160;DHT22;8185;57.818;15.224;2022-12-07T06:21:23;-3.70;99.90
16160;DHT22;8185;57.818;15.224;2022-12-07T06:23:51;-3.70;99.90
16160;DHT22;8185;57.818;15.224;2022-12-07T06:26:18;-3.80;99.90
16160;DHT22;8185;57.818;15.224;2022-12-07T06:28:46;-3.80;99.90
16160;DHT22;8185;57.818;15.224;2022-12-07T06:31:13;-3.80;99.90
16160;DHT22;8185;57.818;15.224;2022-12-07T06:33:42;-3.80;99.90
16160;DHT22;8185;57.818;15.224;2022-12-07T06:36:09;-3.90;99.90
16160;DHT22;8185;57.818;15.224;2022-12-07T06:38:37;-3.80;99.90
16160;DHT22;8185;57.818;15.224;2022-12-07T06:41:04;-3.70;99.90
16160;DHT22;8185;57.818;15.224;2022-12-07T06:43:32;-3.60;99.90
16160;DHT22;8185;57.818;15.224;2022-12-07T06:45:59;-3.70;99.90
16160;DHT22;8185;57.818;15.224;2022-12-07T06:48:27;-3.70;99.90
16160;DHT22;8185;57.818;15.224;2022-12-07T06:50:56;-3.80;99.90
16160;DHT22;8185;57.818;15.224;2022-12-07T06:53:23;-4.00;99.90
16160;DHT22;8185;57.818;15.224;2022-12-07T06:55:50;-3.90;99.90
16160;DHT22;8185;57.818;15.224;2022-12-07T06:58:17;-4.00;99.90
16160;DHT22;8185;57.818;15.224;2022-12-07T07:00:45;-4.00;99.90
16160;DHT22;8185;57.818;15.224;2022-12-07T07:03:12;-4.00;99.90
16160;DHT22;8185;57.818;15.224;2022-12-07T07:05:39;-4.00;99.90
16160;DHT22;8185;57.818;15.224;2022-12-07T07:08:08;-4.10;99.90
16160;DHT22;8185;57.818;15.224;2022-12-07T07:10:36;-4.00;99.90
16160;DHT22;8185;57.818;15.224;2022-12-07T07:13:03;-4.10;99.90
16160;DHT22;8185;57.818;15.224;2022-12-07T07:15:31;-4.00;99.90
16160;DHT22;8185;57.818;15.224;2022-12-07T07:17:58;-4.00;99.90
16160;DHT22;8185;57.818;15.224;2022-12-07T07:20:26;-4.00;99.90
16160;DHT22;8185;57.818;15.224;2022-12-07T07:22:54;-4.10;99.90
16160;DHT22;8185;57.818;15.224;2022-12-07T07:25:24;-4.10;99.90
16160;DHT22;8185;57.818;15.224;2022-12-07T07:27:51;-4.00;99.90
16160;DHT22;8185;57.818;15.224;2022-12-07T07:30:18;-4.00;99.90
16160;DHT22;8185;57.818;15.224;2022-12-07T07:32:45;-4.00;99.90
16160;DHT22;8185;57.818;15.224;2022-12-07T07:35:13;-4.00;99.90
16160;DHT22;8185;57.818;15.224;2022-12-07T07:37:40;-4.00;99.90
16160;DHT22;8185;57.818;15.224;2022-12-07T07:40:08;-3.80;99.90
16160;DHT22;8185;57.818;15.224;2022-12-07T07:42:37;-3.70;99.90
16160;DHT22;8185;57.818;15.224;2022-12-07T07:45:05;-3.70;99.90
16160;DHT22;8185;57.818;15.224;2022-12-07T07:47:32;-3.60;99.90
16160;DHT22;8185;57.818;15.224;2022-12-07T07:50:00;-3.70;99.90
16160;DHT22;8185;57.818;15.224;2022-12-07T07:52:27;-3.60;99.90
16160;DHT22;8185;57.818;15.224;2022-12-07T07:54:54;-3.60;99.90
16160;DHT22;8185;57.818;15.224;2022-12-07T07:57:21;-3.60;99.90
16160;DHT22;8185;57.818;15.224;2022-12-07T07:59:50;-3.70;99.90
16160;DHT22;8185;57.818;15.224;2022-12-07T08:02:18;-3.70;99.90
16160;DHT22;8185;57.818;15.224;2022-12-07T08:04:46;-3.70;99.90
16160;DHT22;8185;57.818;15.224;2022-12-07T08:07:14;-3.70;99.90
16160;DHT22;8185;57.818;15.224;2022-12-07T08:09:41;-3.70;99.90
16160;DHT22;8185;57.818;15.224;2022-12-07T08:12:09;-3.50;99.90
16160;DHT22;8185;57.818;15.224;2022-12-07T08:14:36;-3.60;99.90
16160;DHT22;8185;57.818;15.224;2022-12-07T08:17:04;-3.50;99.90
16160;DHT22;8185;57.818;15.224;2022-12-07T08:19:32;-3.40;99.90
16160;DHT22;8185;57.818;15.224;2022-12-07T08:22:00;-3.20;99.90
16160;DHT22;8185;57.818;15.224;2022-12-07T08:24:27;-3.10;99.90
16160;DHT22;8185;57.818;15.224;2022-12-07T08:26:55;-3.00;99.90
16160;DHT22;8185;57.818;15.224;2022-12-07T08:29:22;-3.00;99.90
16160;DHT22;8185;57.818;15.224;2022-12-07T08:31:49;-3.00;99.90
16160;DHT22;8185;57.818;15.224;2022-12-07T08:34:17;-2.90;99.90
16160;DHT22;8185;57.818;15.224;2022-12-07T08:36:45;-2.90;99.90
16160;DHT22;8185;57.818;15.224;2022-12-07T08:39:12;-2.90;99.90
16160;DHT22;8185;57.818;15.224;2022-12-07T08:41:39;-2.80;99.90
16160;DHT22;8185;57.818;15.224;2022-12-07T08:44:06;-2.80;99.90
16160;DHT22;8185;57.818;15.224;2022-12-07T08:46:36;-2.70;99.90
16160;DHT22;8185;57.818;15.224;2022-12-07T08:49:06;-2.70;99.90
16160;DHT22;8185;57.818;15.224;2022-12-07T08:51:36;-2.70;99.90
16160;DHT22;8185;57.818;15.224;2022-12-07T08:54:06;-2.70;99.90
16160;DHT22;8185;57.818;15.224;2022-12-07T08:56:34;-2.70;99.90
16160;DHT22;8185;57.818;15.224;2022-12-07T08:59:02;-2.70;99.90
16160;DHT22;8185;57.818;15.224;2022-12-07T09:01:30;-2.70;99.90
16160;DHT22;8185;57.818;15.224;2022-12-07T09:03:57;-2.70;99.90
16160;DHT22;8185;57.818;15.224;2022-12-07T09:06:25;-2.70;99.90
16160;DHT22;8185;57.818;15.224;2022-12-07T09:08:57;-2.80;99.90
16160;DHT22;8185;57.818;15.224;2022-12-07T09:11:25;-2.70;99.90
16160;DHT22;8185;57.818;15.224;2022-12-07T09:13:52;-2.70;99.90
16160;DHT22;8185;57.818;15.224;2022-12-07T09:16:19;-2.70;99.90
16160;DHT22;8185;57.818;15.224;2022-12-07T09:18:46;-2.60;99.90
16160;DHT22;8185;57.818;15.224;2022-12-07T09:21:14;-2.70;99.90
16160;DHT22;8185;57.818;15.224;2022-12-07T09:23:41;-2.70;99.90
16160;DHT22;8185;57.818;15.224;2022-12-07T09:26:10;-2.70;99.90
16160;DHT22;8185;57.818;15.224;2022-12-07T09:28:37;-2.60;99.90
16160;DHT22;8185;57.818;15.224;2022-12-07T09:31:05;-2.50;99.90
16160;DHT22;8185;57.818;15.224;2022-12-07T09:33:33;-2.50;99.90
16160;DHT22;8185;57.818;15.224;2022-12-07T09:36:00;-2.60;99.90
16160;DHT22;8185;57.818;15.224;2022-12-07T09:38:28;-2.60;99.90
16160;DHT22;8185;57.818;15.224;2022-12-07T09:40:57;-2.60;99.90
16160;DHT22;8185;57.818;15.224;2022-12-07T09:43:26;-2.60;99.90
16160;DHT22;8185;57.818;15.224;2022-12-07T09:45:55;-2.70;99.90
16160;DHT22;8185;57.818;15.224;2022-12-07T09:48:28;-2.70;99.90
16160;DHT22;8185;57.818;15.224;2022-12-07T09:50:58;-2.60;99.90
16160;DHT22;8185;57.818;15.224;2022-12-07T09:53:28;-2.60;99.90
16160;DHT22;8185;57.818;15.224;2022-12-07T09:55:56;-2.60;99.90
16160;DHT22;8185;57.818;15.224;2022-12-07T09:58:27;-2.50;99.90
16160;DHT22;8185;57.818;15.224;2022-12-07T10:00:57;-2.50;99.90
16160;DHT22;8185;57.818;15.224;2022-12-07T10:03:26;-2.50;99.90
16160;DHT22;8185;57.818;15.224;2022-12-07T10:05:54;-2.40;99.90
16160;DHT22;8185;57.818;15.224;2022-12-07T10:08:22;-2.50;99.90
16160;DHT22;8185;57.818;15.224;2022-12-07T10:10:52;-2.60;99.90
16160;DHT22;8185;57.818;15.224;2022-12-07T10:13:21;-2.60;99.90
16160;DHT22;8185;57.818;15.224;2022-12-07T10:15:52;-2.70;99.90
16160;DHT22;8185;57.818;15.224;2022-12-07T10:18:26;-2.80;99.90
16160;DHT22;8185;57.818;15.224;2022-12-07T10:21:13;-2.80;99.90
16160;DHT22;8185;57.818;15.224;2022-12-07T10:23:41;-2.70;99.90
16160;DHT22;8185;57.818;15.224;2022-12-07T10:26:31;-2.70;99.90
16160;DHT22;8185;57.818;15.224;2022-12-07T10:29:00;-2.60;99.90
16160;DHT22;8185;57.818;15.224;2022-12-07T10:31:29;-2.60;99.90
16160;DHT22;8185;57.818;15.224;2022-12-07T10:33:59;-2.60;99.90
16160;DHT22;8185;57.818;15.224;2022-12-07T10:36:34;-2.70;99.90
16160;DHT22;8185;57.818;15.224;2022-12-07T10:39:04;-2.70;99.90
16160;DHT22;8185;57.818;15.224;2022-12-07T10:41:54;-2.70;99.90
16160;DHT22;8185;57.818;15.224;2022-12-07T10:44:24;-2.80;99.90
16160;DHT22;8185;57.818;15.224;2022-12-07T10:47:17;-2.80;99.90
16160;DHT22;8185;57.818;15.224;2022-12-07T10:53:04;-2.90;99.90
16160;DHT22;8185;57.818;15.224;2022-12-07T10:55:44;-3.00;99.90
16160;DHT22;8185;57.818;15.224;2022-12-07T10:58:24;-3.00;99.90
16160;DHT22;8185;57.818;15.224;2022-12-07T11:00:58;-2.90;99.90
16160;DHT22;8185;57.818;15.224;2022-12-07T11:06:35;-2.80;99.90
16160;DHT22;8185;57.818;15.224;2022-12-07T11:09:24;-2.80;99.90
16160;DHT22;8185;57.818;15.224;2022-12-07T11:12:02;-2.70;99.90
16160;DHT22;8185;57.818;15.224;2022-12-07T11:14:39;-2.60;99.90
16160;DHT22;8185;57.818;15.224;2022-12-07T11:17:12;-2.60;99.90
16160;DHT22;8185;57.818;15.224;2022-12-07T11:19:53;-2.60;99.90
16160;DHT22;8185;57.818;15.224;2022-12-07T11:22:29;-2.60;99.90
16160;DHT22;8185;57.818;15.224;2022-12-07T11:25:15;-2.50;99.90
16160;DHT22;8185;57.818;15.224;2022-12-07T11:27:48;-2.50;99.90
16160;DHT22;8185;57.818;15.224;2022-12-07T11:30:25;-2.70;99.90
16160;DHT22;8185;57.818;15.224;2022-12-07T11:33:12;-2.70;99.90
16160;DHT22;8185;57.818;15.224;2022-12-07T11:35:53;-2.70;99.90
16160;DHT22;8185;57.818;15.224;2022-12-07T11:38:41;-2.70;99.90
16160;DHT22;8185;57.818;15.224;2022-12-07T11:41:09;-2.80;99.90
16160;DHT22;8185;57.818;15.224;2022-12-07T11:43:52;-2.80;99.90
16160;DHT22;8185;57.818;15.224;2022-12-07T11:46:20;-2.80;99.90
16160;DHT22;8185;57.818;15.224;2022-12-07T11:48:55;-2.70;99.90
16160;DHT22;8185;57.818;15.224;2022-12-07T11:51:24;-2.70;99.90
16160;DHT22;8185;57.818;15.224;2022-12-07T11:53:56;-2.70;99.90
16160;DHT22;8185;57.818;15.224;2022-12-07T11:56:28;-2.60;99.90
16160;DHT22;8185;57.818;15.224;2022-12-07T11:59:00;-2.60;99.90
16160;DHT22;8185;57.818;15.224;2022-12-07T12:01:39;-2.70;99.90
16160;DHT22;8185;57.818;15.224;2022-12-07T12:04:23;-2.60;99.90
16160;DHT22;8185;57.818;15.224;2022-12-07T12:06:54;-2.60;99.90
16160;DHT22;8185;57.818;15.224;2022-12-07T12:09:26;-2.70;99.90
16160;DHT22;8185;57.818;15.224;2022-12-07T12:12:16;-2.60;99.90
16160;DHT22;8185;57.818;15.224;2022-12-07T12:14:57;-2.70;99.90
16160;DHT22;8185;57.818;15.224;2022-12-07T12:20:31;-2.80;99.90
16160;DHT22;8185;57.818;15.224;2022-12-07T12:23:05;-2.80;99.90
16160;DHT22;8185;57.818;15.224;2022-12-07T12:25:40;-2.90;99.90
16160;DHT22;8185;57.818;15.224;2022-12-07T12:28:21;-2.90;99.90
16160;DHT22;8185;57.818;15.224;2022-12-07T12:31:09;-2.90;99.90
16160;DHT22;8185;57.818;15.224;2022-12-07T12:33:38;-2.90;99.90
16160;DHT22;8185;57.818;15.224;2022-12-07T12:36:24;-2.90;99.90
16160;DHT22;8185;57.818;15.224;2022-12-07T12:39:08;-3.00;99.90
16160;DHT22;8185;57.818;15.224;2022-12-07T12:41:56;-3.00;99.90
16160;DHT22;8185;57.818;15.224;2022-12-07T12:45:19;-3.00;99.90
16160;DHT22;8185;57.818;15.224;2022-12-07T12:48:09;-3.10;99.90
16160;DHT22;8185;57.818;15.224;2022-12-07T12:51:35;-3.20;99.90
16160;DHT22;8185;57.818;15.224;2022-12-07T12:54:04;-3.20;99.90
16160;DHT22;8185;57.818;15.224;2022-12-07T12:56:39;-3.30;99.90
16160;DHT22;8185;57.818;15.224;2022-12-07T12:59:23;-3.30;99.90
16160;DHT22;8185;57.818;15.224;2022-12-07T13:01:53;-3.30;99.90
16160;DHT22;8185;57.818;15.224;2022-12-07T13:07:53;-3.30;99.90
16160;DHT22;8185;57.818;15.224;2022-12-07T13:13:29;-3.30;99.90
16160;DHT22;8185;57.818;15.224;2022-12-07T13:18:58;-3.40;99.90
16160;DHT22;8185;57.818;15.224;2022-12-07T13:21:42;-3.50;99.90
16160;DHT22;8185;57.818;15.224;2022-12-07T13:24:12;-3.60;99.90
16160;DHT22;8185;57.818;15.224;2022-12-07T13:26:42;-3.60;99.90
16160;DHT22;8185;57.818;15.224;2022-12-07T13:29:13;-3.70;99.90
16160;DHT22;8185;57.818;15.224;2022-12-07T13:31:43;-3.70;99.90
16160;DHT22;8185;57.818;15.224;2022-12-07T13:34:32;-3.70;99.90
16160;DHT22;8185;57.818;15.224;2022-12-07T13:37:01;-3.70;99.90
16160;DHT22;8185;57.818;15.224;2022-12-07T13:39:29;-3.70;99.90
16160;DHT22;8185;57.818;15.224;2022-12-07T13:41:58;-3.90;99.90
16160;DHT22;8185;57.818;15.224;2022-12-07T13:44:28;-3.90;99.90
16160;DHT22;8185;57.818;15.224;2022-12-07T13:47:05;-3.90;99.90
16160;DHT22;8185;57.818;15.224;2022-12-07T13:49:39;-4.00;99.90
16160;DHT22;8185;57.818;15.224;2022-12-07T13:52:18;-4.00;99.90
16160;DHT22;8185;57.818;15.224;2022-12-07T13:54:47;-4.00;99.90
16160;DHT22;8185;57.818;15.224;2022-12-07T13:57:15;-4.10;99.90
16160;DHT22;8185;57.818;15.224;2022-12-07T13:59:42;-4.00;99.90
16160;DHT22;8185;57.818;15.224;2022-12-07T14:02:21;-4.00;99.90
16160;DHT22;8185;57.818;15.224;2022-12-07T14:04:52;-3.90;99.90
16160;DHT22;8185;57.818;15.224;2022-12-07T14:07:21;-3.90;99.90
16160;DHT22;8185;57.818;15.224;2022-12-07T14:09:58;-3.90;99.90
16160;DHT22;8185;57.818;15.224;2022-12-07T14:12:27;-3.90;99.90
16160;DHT22;8185;57.818;15.224;2022-12-07T14:14:55;-3.90;99.90
16160;DHT22;8185;57.818;15.224;2022-12-07T14:17:25;-3.90;99.90
16160;DHT22;8185;57.818;15.224;2022-12-07T14:19:55;-3.80;99.90
16160;DHT22;8185;57.818;15.224;2022-12-07T14:22:29;-3.90;99.90
16160;DHT22;8185;57.818;15.224;2022-12-07T14:25:16;-3.90;99.90
16160;DHT22;8185;57.818;15.224;2022-12-07T14:27:53;-3.90;99.90
16160;DHT22;8185;57.818;15.224;2022-12-07T14:30:23;-3.90;99.90
16160;DHT22;8185;57.818;15.224;2022-12-07T14:32:53;-3.90;99.90
16160;DHT22;8185;57.818;15.224;2022-12-07T14:35:22;-3.90;99.90
16160;DHT22;8185;57.818;15.224;2022-12-07T14:37:50;-3.90;99.90
16160;DHT22;8185;57.818;15.224;2022-12-07T14:40:19;-3.90;99.90
16160;DHT22;8185;57.818;15.224;2022-12-07T14:42:50;-3.90;99.90
16160;DHT22;8185;57.818;15.224;2022-12-07T14:45:20;-3.90;99.90
16160;DHT22;8185;57.818;15.224;2022-12-07T14:47:48;-3.90;99.90
16160;DHT22;8185;57.818;15.224;2022-12-07T14:50:18;-4.00;99.90
16160;DHT22;8185;57.818;15.224;2022-12-07T14:52:49;-4.00;99.90
16160;DHT22;8185;57.818;15.224;2022-12-07T14:55:23;-4.00;99.90
16160;DHT22;8185;57.818;15.224;2022-12-07T14:57:51;-3.90;99.90
16160;DHT22;8185;57.818;15.224;2022-12-07T15:00:20;-3.90;99.90
16160;DHT22;8185;57.818;15.224;2022-12-07T15:02:48;-4.00;99.90
16160;DHT22;8185;57.818;15.224;2022-12-07T15:05:16;-3.90;99.90
16160;DHT22;8185;57.818;15.224;2022-12-07T15:07:44;-3.90;99.90
16160;DHT22;8185;57.818;15.224;2022-12-07T15:10:16;-3.90;99.90
16160;DHT22;8185;57.818;15.224;2022-12-07T15:12:45;-3.90;99.90
16160;DHT22;8185;57.818;15.224;2022-12-07T15:15:12;-3.90;99.90
16160;DHT22;8185;57.818;15.224;2022-12-07T15:17:39;-3.90;99.90
16160;DHT22;8185;57.818;15.224;2022-12-07T15:20:11;-3.90;99.90
16160;DHT22;8185;57.818;15.224;2022-12-07T15:22:39;-3.90;99.90
16160;DHT22;8185;57.818;15.224;2022-12-07T15:25:07;-3.90;99.90
16160;DHT22;8185;57.818;15.224;2022-12-07T15:27:36;-3.90;99.90
16160;DHT22;8185;57.818;15.224;2022-12-07T15:30:04;-3.90;99.90
16160;DHT22;8185;57.818;15.224;2022-12-07T15:32:32;-4.00;99.90
16160;DHT22;8185;57.818;15.224;2022-12-07T15:34:59;-4.00;99.90
16160;DHT22;8185;57.818;15.224;2022-12-07T15:37:26;-4.00;99.90
16160;DHT22;8185;57.818;15.224;2022-12-07T15:39:53;-4.00;99.90
16160;DHT22;8185;57.818;15.224;2022-12-07T15:42:21;-4.00;99.90
16160;DHT22;8185;57.818;15.224;2022-12-07T15:44:49;-4.00;99.90
16160;DHT22;8185;57.818;15.224;2022-12-07T15:47:31;-4.00;99.90
16160;DHT22;8185;57.818;15.224;2022-12-07T15:49:58;-4.10;99.90
16160;DHT22;8185;57.818;15.224;2022-12-07T15:52:26;-4.00;99.90
16160;DHT22;8185;57.818;15.224;2022-12-07T15:54:53;-4.00;99.90
16160;DHT22;8185;57.818;15.224;2022-12-07T15:57:20;-4.00;99.90
16160;DHT22;8185;57.818;15.224;2022-12-07T15:59:49;-4.00;99.90
16160;DHT22;8185;57.818;15.224;2022-12-07T16:02:16;-3.90;99.90
16160;DHT22;8185;57.818;15.224;2022-12-07T16:04:43;-4.00;99.90
16160;DHT22;8185;57.818;15.224;2022-12-07T16:07:11;-4.10;99.90
16160;DHT22;8185;57.818;15.224;2022-12-07T16:09:41;-4.00;99.90
16160;DHT22;8185;57.818;15.224;2022-12-07T16:12:08;-4.00;99.90
16160;DHT22;8185;57.818;15.224;2022-12-07T16:14:36;-4.00;99.90